SBDNSBBU

Guest
Details From SBDN - Presidente Prudente
To SBBU - BAURU
Flight Number -
Tags generated
Created
Modified
Stats Distance 132 nm / 245 km
Max Altitude 11,000 ft / 3,353 m
Waypoints 4
Social Downloads 0
Likes 0
Share VATSIM

Download

Looking for another format? Having issues loading an existing format? Contact us
Advertisement - Login to hide

Notes

Basic altitude profile: - Ascent Rate: 2500ft/min - Ascent Speed: 250kts - Cruise Altitude: 35000ft - Cruise Speed: 420kts - Descent Rate: 1500ft/min - Descent Speed: 250kts Options: - Use NATs: yes - Use PACOTS: yes - Use low airways: yes - Use high airways: no

Route

SBDN ELION W58 RENAN SBBU

ID Type Via Altitude Latitude Longitude Leg Dist Tot Dist Heading (true) Name
O SBDN APT - 0 ft / 0 m -22.17504˚ -51.42464˚ - 0 nm - Presidente Prudente
ELION FIX - 8,900 ft / 2,713 m -22.20500˚ -50.97467˚ 25 nm 25 nm 94° / 94° -
RENAN FIX W58 (AWY-LO) 11,000 ft / 3,353 m -22.26117˚ -50.05800˚ 51 nm 76 nm 94° / 94° -
O SBBU APT - 0 ft / 0 m -22.34504˚ -49.05380˚ 56 nm 132 nm 95° / 95° BAURU

Altitude Profile

Advertisement - Login to hide

SBDN

Details ICAO SBDN (PPB)
Name Presidente Prudente
Region Brazil
Timezone America/Sao_Paulo (UTC-2.0)
Stats Elevation 1,476 ft / 450 m (AMSL)
Location -22.175042° -51.424639°
Runways 1
Magnetic Variation 19.161° W

METAR

SBDN 140500Z 10008KT CAVOK 25/18 Q1014

Decode

TAF

TAF SBDN 140300Z 1406/1418 10008KT CAVOK TN22/1408Z TX33/1418Z BECMG 1412/1414 9999 FEW045 RMK PER

Decode

Departure Runways

ID Width Length Bearing (true) Bearing (mag) Surface Threshold Offset Overrun Length
12 115 ft / 35 m 6,929 ft / 2,112 m 98.36° 117.52° Asphalt 0 ft / 0 m 0 ft / 0 m
30 115 ft / 35 m 6,929 ft / 2,112 m 278.35° 297.51° Asphalt 0 ft / 0 m 0 ft / 0 m

SBBU

Details ICAO SBBU (BAU)
Name BAURU
Region Brazil
Timezone America/Sao_Paulo (UTC-2.0)
Stats Elevation 2,025 ft / 617 m (AMSL)
Location -22.345040° -49.053801°
Runways 1
Magnetic Variation 20.400° W

METAR

Not found

TAF

TAF SBBU 140300Z 1406/1418 08007KT CAVOK TN21/1408Z TX33/1418Z BECMG 1412/1414 9999 SCT045 RMK PER

Decode

Destination Runways

ID Width Length Bearing (true) Bearing (mag) Surface Threshold Offset Overrun Length
14 115 ft / 35 m 4,925 ft / 1,501 m 122.73° 143.13° Asphalt 657 ft / 200 m 0 ft / 0 m
32 115 ft / 35 m 4,925 ft / 1,501 m 302.73° 323.13° Asphalt 0 ft / 0 m 0 ft / 0 m